Time;durP1;ratioP1;P1;durP2;ratioP2;P2;SDS_P1;SDS_P2;PMS_P1;PMS_P2;Temp;Humidity;BMP_temperature;BMP_pressure;BME280_temperature;BME280_humidity;BME280_pressure;Samples;Min_cycle;Max_cycle;Signal;HPM_P1;HPM_P2
2022/02/08 00:00:12;;;;;;;15.90;5.40;;;0.80;99.70;;;;;;5134879;27;20892;-66
2022/02/08 00:02:43;;;;;;;12.30;5.00;;;0.70;99.70;;;;;;5135324;27;20436;-66
2022/02/08 00:05:13;;;;;;;14.73;5.00;;;0.60;99.70;;;;;;5130799;27;20468;-66
2022/02/08 00:07:39;;;;;;;14.87;5.30;;;0.60;99.70;;;;;;5114490;28;20449;-66
2022/02/08 00:10:07;;;;;;;13.63;5.27;;;0.50;99.70;;;;;;5114470;28;21005;-66
2022/02/08 00:12:34;;;;;;;11.90;5.37;;;0.60;99.70;;;;;;5114670;28;20526;-66
2022/02/08 00:15:01;;;;;;;12.70;4.60;;;0.70;99.70;;;;;;5114459;28;20464;-66
2022/02/08 00:17:29;;;;;;;11.50;5.40;;;0.70;99.70;;;;;;5114615;28;20509;-65
2022/02/08 00:19:55;;;;;;;11.37;5.50;;;0.90;99.70;;;;;;5114162;28;20861;-66
2022/02/08 00:22:22;;;;;;;10.50;4.43;;;0.80;99.70;;;;;;5114455;28;20494;-66
2022/02/08 00:24:49;;;;;;;10.97;4.83;;;0.90;99.70;;;;;;5113956;28;20449;-65
2022/02/08 00:27:15;;;;;;;11.00;6.40;;;1.00;99.70;;;;;;5114197;28;20452;-66
2022/02/08 00:29:42;;;;;;;10.83;4.33;;;1.20;99.70;;;;;;5114024;28;20468;-66
2022/02/08 00:32:09;;;;;;;12.83;4.70;;;1.30;99.70;;;;;;5114140;28;20441;-66
2022/02/08 00:34:37;;;;;;;13.67;5.80;;;1.30;99.70;;;;;;5114090;28;20445;-66
2022/02/08 00:37:04;;;;;;;16.03;4.57;;;1.20;99.70;;;;;;5113713;28;20779;-65
2022/02/08 00:39:32;;;;;;;13.13;4.30;;;1.10;99.70;;;;;;5113280;28;20469;-66
2022/02/08 00:42:04;;;;;;;9.67;4.40;;;1.10;99.70;;;;;;5113910;28;20453;-66
2022/02/08 00:44:37;;;;;;;7.10;4.00;;;1.20;99.70;;;;;;5113988;28;20476;-66
2022/02/08 00:47:16;;;;;;;13.10;4.20;;;1.30;99.70;;;;;;5113545;28;20452;-66
2022/02/08 00:49:44;;;;;;;12.53;4.23;;;1.30;99.70;;;;;;5113661;28;20465;-66
2022/02/08 00:52:15;;;;;;;10.93;4.50;;;1.30;99.70;;;;;;5113063;28;20452;-66
2022/02/08 00:54:41;;;;;;;10.63;4.20;;;1.30;99.70;;;;;;5113743;28;20463;-66
2022/02/08 00:57:08;;;;;;;11.20;4.23;;;1.30;99.70;;;;;;5113317;28;20448;-66
2022/02/08 00:59:35;;;;;;;15.83;4.33;;;1.50;99.70;;;;;;5113401;28;20465;-66
2022/02/08 01:02:02;;;;;;;10.80;3.90;;;1.70;99.70;;;;;;5113548;28;20440;-66
2022/02/08 01:04:29;;;;;;;13.10;4.03;;;1.60;99.70;;;;;;5113450;28;20452;-64
2022/02/08 01:06:58;;;;;;;10.00;4.03;;;1.50;99.70;;;;;;5113175;28;20541;-66
2022/02/08 01:09:35;;;;;;;14.17;4.27;;;1.70;99.70;;;;;;5113186;28;20909;-66
2022/02/08 01:12:02;;;;;;;9.73;3.97;;;1.70;99.70;;;;;;5113248;28;20986;-66
2022/02/08 01:14:32;;;;;;;15.10;4.47;;;1.50;99.70;;;;;;5113355;28;20441;-66
2022/02/08 01:16:59;;;;;;;18.80;3.90;;;1.50;99.70;;;;;;5113037;28;20445;-66
2022/02/08 01:19:25;;;;;;;8.87;3.77;;;1.30;99.70;;;;;;5113007;28;20495;-66
2022/02/08 01:21:52;;;;;;;10.47;3.30;;;1.30;99.70;;;;;;5113062;28;20487;-66
2022/02/08 01:24:20;;;;;;;12.50;3.90;;;1.40;99.70;;;;;;5113137;28;20448;-66
2022/02/08 01:26:52;;;;;;;10.50;3.70;;;1.50;99.70;;;;;;5112734;28;20453;-66
2022/02/08 01:29:23;;;;;;;7.40;3.70;;;1.50;99.70;;;;;;5112903;28;20465;-66
2022/02/08 01:31:51;;;;;;;8.90;3.70;;;1.70;99.70;;;;;;5112974;28;20434;-66
2022/02/08 01:34:35;;;;;;;10.40;3.73;;;1.90;99.70;;;;;;5113011;28;20943;-66
2022/02/08 01:37:08;;;;;;;8.47;4.20;;;1.80;99.70;;;;;;5112730;28;20473;-66
2022/02/08 01:39:45;;;;;;;9.10;3.50;;;1.70;99.70;;;;;;5112578;28;20461;-66
2022/02/08 01:42:28;;;;;;;10.90;3.60;;;1.70;99.70;;;;;;5112724;28;20432;-66
2022/02/08 01:45:08;;;;;;;7.93;3.80;;;1.50;99.70;;;;;;5112498;28;21208;-66
2022/02/08 01:47:45;;;;;;;7.43;3.67;;;1.40;99.70;;;;;;5112734;28;20524;-66
2022/02/08 01:50:16;;;;;;;8.63;3.30;;;1.50;99.70;;;;;;5112377;28;20457;-66
2022/02/08 01:52:43;;;;;;;7.93;3.13;;;1.60;99.70;;;;;;5111409;28;20441;-66
2022/02/08 01:55:16;;;;;;;10.13;3.43;;;1.60;99.70;;;;;;5112279;28;20441;-66
2022/02/08 01:57:44;;;;;;;10.60;3.40;;;1.60;99.70;;;;;;5113537;27;20821;-66
2022/02/08 02:00:13;;;;;;;7.03;3.20;;;1.70;99.70;;;;;;5114545;27;20464;-66
2022/02/08 02:02:40;;;;;;;5.57;2.90;;;1.70;99.70;;;;;;5114788;27;20441;-65
2022/02/08 02:05:07;;;;;;;6.23;3.10;;;1.60;99.70;;;;;;5111508;28;20449;-66
2022/02/08 02:07:35;;;;;;;9.47;3.27;;;1.60;99.70;;;;;;5111844;28;20445;-66
2022/02/08 02:10:02;;;;;;;8.60;3.47;;;1.70;99.70;;;;;;5111405;28;20461;-66
2022/02/08 02:12:30;;;;;;;7.93;3.20;;;1.80;99.70;;;;;;5111556;28;20463;-66
2022/02/08 02:15:01;;;;;;;6.57;3.17;;;2.00;99.70;;;;;;5110963;28;20445;-66
2022/02/08 02:17:27;;;;;;;10.20;3.17;;;1.90;99.70;;;;;;5111461;28;20453;-66
2022/02/08 02:19:54;;;;;;;6.40;3.17;;;1.90;99.70;;;;;;5166651;22;20493;-63
2022/02/08 02:22:21;;;;;;;7.57;3.30;;;1.90;99.70;;;;;;5111578;28;20825;-64
2022/02/08 02:24:49;;;;;;;9.20;3.33;;;1.80;99.70;;;;;;5110864;28;20886;-65
2022/02/08 02:27:15;;;;;;;9.23;4.00;;;1.70;99.70;;;;;;5111379;28;20473;-64
2022/02/08 02:29:42;;;;;;;11.03;3.83;;;1.80;99.70;;;;;;5093534;28;20468;-64
2022/02/08 02:32:10;;;;;;;7.43;3.50;;;1.70;99.70;;;;;;5106804;28;20830;-64
2022/02/08 02:34:38;;;;;;;11.57;3.93;;;1.70;99.70;;;;;;5111495;28;20472;-65
2022/02/08 02:37:05;;;;;;;6.50;3.50;;;1.80;99.70;;;;;;5110903;28;20455;-65
2022/02/08 02:39:32;;;;;;;15.03;4.03;;;1.80;99.70;;;;;;5110785;28;20521;-63
2022/02/08 02:42:00;;;;;;;8.93;3.77;;;1.70;99.70;;;;;;5111608;28;20484;-65
2022/02/08 02:44:27;;;;;;;9.33;3.40;;;1.70;99.70;;;;;;5110918;28;20448;-64
2022/02/08 02:46:53;;;;;;;7.77;3.20;;;1.80;99.70;;;;;;5110709;28;20449;-64
2022/02/08 02:49:26;;;;;;;12.20;3.27;;;1.80;99.70;;;;;;5111039;28;20447;-63
2022/02/08 02:51:52;;;;;;;7.30;3.27;;;1.80;99.70;;;;;;5110127;28;20528;-64
2022/02/08 02:54:20;;;;;;;9.50;3.50;;;1.90;99.70;;;;;;5111119;28;20449;-64
2022/02/08 02:56:48;;;;;;;7.30;3.23;;;1.90;99.70;;;;;;5110717;28;20445;-64
2022/02/08 02:59:18;;;;;;;9.13;3.60;;;1.90;99.70;;;;;;5110698;28;20449;-64
2022/02/08 03:02:20;;;;;;;10.40;3.37;;;1.90;99.70;;;;;;5111111;28;20500;-65
2022/02/08 03:04:54;;;;;;;9.40;3.23;;;2.00;99.70;;;;;;5107095;28;20480;-62
2022/02/08 03:18:35;;;;;;;9.83;3.30;;;2.40;99.70;;;;;;5115972;28;20440;-64
2022/02/08 03:21:03;;;;;;;9.63;2.97;;;2.40;99.70;;;;;;5104833;28;20480;-64
2022/02/08 03:23:30;;;;;;;10.90;5.20;;;2.80;99.70;;;;;;5114786;28;20465;-64
2022/02/08 03:25:56;;;;;;;11.50;3.93;;;2.70;99.70;;;;;;5114599;28;20889;-64
2022/02/08 03:28:23;;;;;;;14.90;4.30;;;2.60;99.70;;;;;;5114727;28;20534;-64
2022/02/08 03:30:52;;;;;;;4.70;2.47;;;2.50;99.70;;;;;;5114513;28;20465;-64
2022/02/08 03:33:19;;;;;;;7.40;2.73;;;2.80;99.70;;;;;;5114811;28;20448;-64
2022/02/08 03:35:45;;;;;;;6.90;2.87;;;2.70;99.70;;;;;;5114336;28;20823;-63
2022/02/08 03:38:15;;;;;;;6.60;3.00;;;2.80;99.70;;;;;;5114197;28;20441;-64
2022/02/08 03:40:47;;;;;;;9.00;3.00;;;2.80;99.70;;;;;;5114492;28;20870;-64
2022/02/08 03:43:27;;;;;;;7.50;3.17;;;3.00;99.70;;;;;;5114456;28;20453;-64
2022/02/08 03:45:58;;;;;;;9.40;2.90;;;2.90;99.70;;;;;;5114103;27;20451;-63
2022/02/08 03:48:27;;;;;;;9.40;3.10;;;2.90;99.70;;;;;;5114423;28;20460;-63
2022/02/08 03:50:56;;;;;;;9.40;3.13;;;2.90;99.70;;;;;;5112472;28;20826;-64
2022/02/08 03:53:24;;;;;;;9.57;3.00;;;3.00;99.70;;;;;;5114196;28;20478;-63
2022/02/08 03:55:51;;;;;;;8.10;3.13;;;3.10;99.70;;;;;;5114165;28;20445;-65
2022/02/08 03:58:18;;;;;;;7.00;2.80;;;3.10;99.70;;;;;;5114054;28;20448;-64
2022/02/08 04:00:59;;;;;;;8.10;3.37;;;3.00;99.70;;;;;;5114045;28;20461;-65
2022/02/08 04:03:29;;;;;;;6.30;2.90;;;3.00;99.70;;;;;;5114441;28;20445;-64
2022/02/08 04:05:58;;;;;;;12.10;3.37;;;3.00;99.70;;;;;;5113911;28;20528;-64
2022/02/08 04:08:25;;;;;;;9.50;3.30;;;3.00;99.70;;;;;;5113627;28;20948;-65
2022/02/08 04:10:55;;;;;;;7.77;2.63;;;3.00;99.70;;;;;;5114048;28;21007;-64
2022/02/08 04:13:28;;;;;;;10.13;2.90;;;3.00;99.70;;;;;;5113516;28;20448;-63
2022/02/08 04:16:10;;;;;;;5.13;2.30;;;2.90;99.70;;;;;;5113156;28;20441;-64
2022/02/08 04:32:45;;;;;;;6.27;2.60;;;3.10;99.70;;;;;;5113574;28;20549;-64
2022/02/08 04:35:38;;;;;;;9.20;2.67;;;3.20;99.70;;;;;;5113111;28;20453;-64
2022/02/08 04:38:27;;;;;;;6.83;2.60;;;3.30;99.70;;;;;;5106282;28;20460;-61
2022/02/08 04:40:59;;;;;;;8.60;2.33;;;3.40;99.70;;;;;;5104660;28;20845;-65
2022/02/08 04:43:33;;;;;;;9.60;2.70;;;3.30;99.70;;;;;;5113343;28;20449;-63
2022/02/08 04:46:06;;;;;;;8.90;2.30;;;3.30;99.70;;;;;;5112991;28;20925;-62
2022/02/08 04:48:51;;;;;;;5.80;2.43;;;3.50;99.70;;;;;;5113353;28;20445;-64
2022/02/08 04:51:25;;;;;;;7.23;2.33;;;3.50;99.70;;;;;;5112586;28;20849;-64
2022/02/08 04:54:00;;;;;;;5.80;2.57;;;3.50;99.70;;;;;;5112966;28;20447;-62
2022/02/08 04:56:39;;;;;;;8.70;2.67;;;3.50;99.70;;;;;;5112626;28;20449;-63
2022/02/08 04:59:20;;;;;;;8.23;2.30;;;3.50;99.70;;;;;;5112952;28;20473;-63
2022/02/08 05:02:05;;;;;;;5.90;2.40;;;3.40;99.70;;;;;;5102604;28;20552;-64
2022/02/08 05:41:33;;;;;;;8.10;2.97;;;3.00;99.70;;;;;;5060603;28;20514;-63
2022/02/08 05:44:04;;;;;;;7.73;2.23;;;3.00;99.70;;;;;;5078963;28;20444;-63
2022/02/08 05:49:24;;;;;;;8.80;2.50;;;3.30;99.70;;;;;;5063649;28;20571;-64
2022/02/08 05:52:19;;;;;;;8.83;2.30;;;3.10;99.70;;;;;;5063713;28;20453;-62
2022/02/08 05:54:45;;;;;;;5.67;2.50;;;3.10;99.70;;;;;;5067284;28;20433;-64
2022/02/08 05:57:12;;;;;;;5.50;2.20;;;3.10;99.70;;;;;;5065975;28;20450;-64
2022/02/08 05:59:39;;;;;;;8.30;2.77;;;3.20;99.70;;;;;;5064234;28;20486;-63
2022/02/08 06:02:07;;;;;;;8.27;2.50;;;3.10;99.70;;;;;;5066988;28;20447;-63
2022/02/08 06:04:37;;;;;;;11.50;2.70;;;3.30;99.70;;;;;;5067012;28;20440;-64
2022/02/08 06:07:04;;;;;;;6.87;2.60;;;3.20;99.70;;;;;;5066924;28;20436;-64
2022/02/08 06:09:31;;;;;;;9.20;2.30;;;3.20;99.70;;;;;;5065745;28;20482;-65
2022/02/08 06:11:58;;;;;;;5.73;2.00;;;3.40;99.70;;;;;;5067220;28;20446;-66
2022/02/08 06:14:26;;;;;;;6.00;2.43;;;3.40;99.70;;;;;;5066505;28;20469;-64
2022/02/08 06:16:53;;;;;;;6.00;2.40;;;3.20;99.70;;;;;;5067310;28;20509;-65
2022/02/08 06:19:21;;;;;;;7.30;2.37;;;3.30;99.70;;;;;;5067050;28;20443;-64
2022/02/08 06:21:47;;;;;;;7.60;2.47;;;3.40;99.70;;;;;;5066949;28;20447;-64
2022/02/08 06:24:14;;;;;;;6.10;2.20;;;3.40;99.70;;;;;;5067367;28;20823;-65
2022/02/08 06:26:41;;;;;;;10.10;3.53;;;3.50;99.70;;;;;;5066919;28;20478;-66
2022/02/08 06:29:11;;;;;;;8.33;2.37;;;3.50;99.70;;;;;;5066047;28;20570;-64
2022/02/08 06:31:38;;;;;;;6.10;2.67;;;3.40;99.70;;;;;;5066670;28;20439;-65
2022/02/08 06:34:04;;;;;;;8.17;2.47;;;3.40;99.70;;;;;;5066120;28;20458;-66
2022/02/08 06:36:32;;;;;;;6.63;2.37;;;3.40;99.70;;;;;;5063517;28;20467;-66
2022/02/08 06:38:59;;;;;;;5.30;2.10;;;3.40;99.70;;;;;;5060722;28;20546;-65
2022/02/08 06:41:26;;;;;;;6.13;2.70;;;3.40;99.70;;;;;;5053393;28;20473;-65
2022/02/08 06:43:53;;;;;;;7.27;2.40;;;3.30;99.70;;;;;;5053661;28;20831;-65
2022/02/08 06:46:19;;;;;;;5.47;2.30;;;3.20;99.70;;;;;;5052919;28;20824;-62
2022/02/08 06:48:46;;;;;;;5.07;2.23;;;3.20;99.70;;;;;;5053152;28;20487;-63
2022/02/08 06:51:13;;;;;;;9.13;2.40;;;3.20;99.70;;;;;;5051973;28;20495;-64
2022/02/08 06:53:42;;;;;;;5.87;2.20;;;3.10;99.70;;;;;;5053338;28;20436;-64
2022/02/08 06:56:09;;;;;;;9.40;2.67;;;3.20;99.70;;;;;;5054297;28;20538;-64
2022/02/08 06:58:48;;;;;;;8.23;2.33;;;3.20;99.70;;;;;;5053059;28;20448;-64
2022/02/08 07:01:15;;;;;;;7.63;2.97;;;3.10;99.70;;;;;;5046624;28;20490;-65
2022/02/08 07:03:41;;;;;;;8.97;2.93;;;3.00;99.70;;;;;;5039593;28;20463;-64
2022/02/08 07:06:08;;;;;;;10.40;3.00;;;3.10;99.70;;;;;;5046876;28;20450;-62
2022/02/08 07:08:35;;;;;;;8.73;3.13;;;3.20;99.70;;;;;;5052815;28;20502;-63
2022/02/08 07:11:03;;;;;;;7.73;2.80;;;3.30;99.70;;;;;;5053124;28;20505;-63
2022/02/08 07:13:30;;;;;;;7.40;2.70;;;3.40;99.70;;;;;;5052941;28;20444;-64
2022/02/08 07:15:56;;;;;;;7.27;2.40;;;3.40;99.70;;;;;;5062713;28;20836;-64
2022/02/08 07:18:23;;;;;;;6.80;2.67;;;3.40;99.70;;;;;;5072806;28;20896;-64
2022/02/08 07:20:50;;;;;;;12.03;2.80;;;3.40;99.70;;;;;;5059594;28;20531;-65
2022/02/08 07:23:16;;;;;;;9.00;2.83;;;3.60;99.70;;;;;;5048174;28;20451;-65
2022/02/08 07:25:43;;;;;;;8.50;3.03;;;3.70;99.70;;;;;;5050423;28;20852;-62
2022/02/08 07:28:11;;;;;;;9.53;3.57;;;3.60;99.70;;;;;;5044839;28;20484;-64
2022/02/08 07:30:38;;;;;;;10.80;3.03;;;3.70;99.70;;;;;;5051925;28;20467;-64
2022/02/08 07:33:05;;;;;;;7.60;3.10;;;3.80;99.70;;;;;;5052356;28;20450;-65
2022/02/08 07:35:44;;;;;;;10.23;2.77;;;3.90;99.70;;;;;;5047484;28;20839;-64
2022/02/08 07:38:19;;;;;;;7.60;3.03;;;3.90;99.70;;;;;;5048080;28;20428;-64
2022/02/08 07:43:28;;;;;;;9.53;3.27;;;4.10;99.70;;;;;;5040841;28;20818;-64
2022/02/08 07:45:56;;;;;;;10.17;2.93;;;4.10;99.70;;;;;;5057071;28;20448;-63
2022/02/08 07:48:23;;;;;;;5.77;2.27;;;4.10;99.70;;;;;;5049610;28;21026;-65
2022/02/08 07:50:51;;;;;;;10.00;3.00;;;4.10;99.70;;;;;;5046340;28;20561;-63
2022/02/08 07:53:19;;;;;;;14.57;3.53;;;4.20;99.70;;;;;;5046841;28;20463;-65
2022/02/08 07:55:46;;;;;;;7.67;2.40;;;4.20;99.70;;;;;;5045640;28;20466;-62
2022/02/08 07:58:13;;;;;;;9.13;2.67;;;4.40;99.70;;;;;;5037897;28;20459;-62
2022/02/08 08:00:41;;;;;;;10.07;2.70;;;4.50;99.70;;;;;;5042193;28;20617;-60
2022/02/08 08:03:08;;;;;;;5.20;2.60;;;4.70;99.70;;;;;;5047998;28;20541;-64
2022/02/08 08:05:35;;;;;;;10.70;3.10;;;4.70;99.70;;;;;;5048222;28;20528;-61
2022/02/08 08:08:02;;;;;;;7.00;2.70;;;4.80;99.70;;;;;;5058133;28;20459;-64
2022/02/08 08:10:31;;;;;;;6.50;2.53;;;4.90;99.70;;;;;;5049158;28;20467;-63
2022/02/08 08:13:00;;;;;;;8.60;2.80;;;5.00;99.70;;;;;;5049993;28;20456;-63
2022/02/08 08:15:37;;;;;;;5.80;2.60;;;5.00;99.70;;;;;;5049640;28;20837;-64
2022/02/08 08:18:18;;;;;;;9.80;2.47;;;4.90;99.70;;;;;;5030634;28;20468;-64
2022/02/08 08:20:45;;;;;;;7.97;2.83;;;4.90;99.70;;;;;;5029897;28;20472;-64
2022/02/08 08:23:12;;;;;;;7.80;2.30;;;4.80;99.70;;;;;;5031028;28;20475;-63
2022/02/08 08:25:39;;;;;;;8.70;2.50;;;4.90;99.70;;;;;;5029654;28;20452;-64
2022/02/08 08:28:07;;;;;;;8.43;2.30;;;4.90;99.70;;;;;;5029502;28;20452;-64
2022/02/08 08:30:34;;;;;;;6.80;2.57;;;4.90;99.70;;;;;;5029667;28;20504;-64
2022/02/08 08:33:02;;;;;;;8.23;2.40;;;5.10;99.70;;;;;;5029658;28;20448;-64
2022/02/08 08:35:30;;;;;;;9.73;2.67;;;5.00;99.70;;;;;;5031167;28;20449;-64
2022/02/08 08:38:03;;;;;;;8.60;2.50;;;5.10;99.70;;;;;;5031533;28;20448;-65
2022/02/08 08:40:44;;;;;;;6.70;2.60;;;5.10;99.70;;;;;;5031494;28;20468;-64
2022/02/08 08:43:34;;;;;;;9.70;2.40;;;5.10;99.70;;;;;;5031544;28;20863;-62
2022/02/08 08:49:03;;;;;;;13.63;2.80;;;5.10;99.70;;;;;;5031221;28;20851;-65
2022/02/08 08:51:39;;;;;;;7.73;2.80;;;5.10;99.70;;;;;;5030857;28;20975;-62
2022/02/08 08:54:07;;;;;;;8.00;2.30;;;5.20;99.70;;;;;;5030348;28;21021;-65
2022/02/08 08:56:36;;;;;;;5.83;2.73;;;5.20;99.70;;;;;;5031101;28;20480;-64
2022/02/08 08:59:03;;;;;;;7.83;2.80;;;5.30;99.70;;;;;;5031173;28;20441;-64
2022/02/08 09:01:30;;;;;;;9.30;3.00;;;5.50;99.70;;;;;;5033998;28;20484;-64
2022/02/08 09:03:57;;;;;;;11.60;2.40;;;5.50;99.70;;;;;;5050687;28;20494;-63
2022/02/08 09:06:24;;;;;;;6.47;2.80;;;5.50;99.70;;;;;;5038949;28;20839;-65
2022/02/08 09:08:52;;;;;;;12.03;2.60;;;5.70;99.70;;;;;;5039029;28;20491;-64
2022/02/08 09:11:34;;;;;;;6.80;2.63;;;5.60;99.70;;;;;;5050233;28;20471;-65
2022/02/08 09:14:07;;;;;;;9.50;2.80;;;5.50;99.70;;;;;;5050252;28;20444;-65
2022/02/08 09:16:39;;;;;;;9.73;2.87;;;5.60;99.70;;;;;;5050401;28;20451;-64
2022/02/08 09:19:28;;;;;;;5.23;2.00;;;5.50;99.70;;;;;;5050810;28;20443;-64
2022/02/08 09:22:23;;;;;;;9.43;2.80;;;5.70;99.70;;;;;;5050495;28;20440;-64
2022/02/08 09:27:56;;;;;;;9.30;3.23;;;5.80;99.70;;;;;;5030257;28;20451;-64
2022/02/08 09:30:33;;;;;;;7.40;2.73;;;5.90;99.70;;;;;;5030962;28;20976;-64
2022/02/08 09:33:00;;;;;;;9.77;3.30;;;5.80;99.70;;;;;;5030517;28;20449;-63
2022/02/08 09:35:27;;;;;;;9.90;3.00;;;6.00;99.70;;;;;;5030588;28;20449;-63
2022/02/08 09:37:53;;;;;;;6.30;2.73;;;6.60;99.70;;;;;;5030730;28;20956;-65
2022/02/08 09:40:24;;;;;;;8.03;2.50;;;6.80;99.70;;;;;;5030624;28;21018;-65
2022/02/08 09:42:53;;;;;;;9.77;2.70;;;6.90;99.70;;;;;;5030717;28;20451;-63
2022/02/08 09:45:20;;;;;;;10.43;2.57;;;7.20;99.70;;;;;;5030552;28;20456;-65
2022/02/08 09:47:53;;;;;;;7.50;2.80;;;7.40;99.70;;;;;;5030635;28;20456;-65
2022/02/08 09:50:23;;;;;;;11.27;3.20;;;7.90;99.70;;;;;;5030844;28;20935;-65
2022/02/08 09:52:53;;;;;;;7.27;2.30;;;8.40;99.70;;;;;;5030428;28;20449;-65
2022/02/08 09:55:22;;;;;;;5.47;2.33;;;9.20;99.70;;;;;;5030583;28;20830;-65
2022/02/08 09:57:49;;;;;;;9.30;2.60;;;9.10;99.70;;;;;;5030670;28;20506;-65
2022/02/08 10:00:18;;;;;;;12.13;2.50;;;8.80;99.70;;;;;;5031535;28;20864;-65
2022/02/08 10:02:45;;;;;;;7.40;2.37;;;8.90;99.70;;;;;;5031662;28;20441;-64
2022/02/08 10:05:13;;;;;;;6.20;2.40;;;9.10;99.70;;;;;;5030461;28;20456;-64
2022/02/08 10:07:40;;;;;;;9.70;2.53;;;9.10;99.70;;;;;;5030666;28;20449;-64
2022/02/08 10:10:09;;;;;;;6.13;2.33;;;8.70;99.70;;;;;;5030435;28;20495;-64
2022/02/08 10:13:14;;;;;;;5.50;2.37;;;8.50;99.70;;;;;;5029613;28;20480;-64
2022/02/08 10:24:04;;;;;;;7.87;2.20;;;7.80;99.70;;;;;;5040878;28;20997;-64
2022/02/08 10:26:41;;;;;;;7.90;2.57;;;7.60;99.70;;;;;;5033772;28;20502;-63
2022/02/08 10:29:20;;;;;;;9.73;2.70;;;7.30;99.70;;;;;;5033608;28;20494;-64
2022/02/08 10:37:39;;;;;;;6.70;2.20;;;7.60;99.70;;;;;;5046874;28;20422;-62
2022/02/08 10:40:07;;;;;;;6.47;2.23;;;7.60;99.70;;;;;;5053704;28;20466;-64
2022/02/08 10:42:35;;;;;;;6.53;2.00;;;7.60;99.70;;;;;;5053570;28;20448;-64
2022/02/08 10:45:17;;;;;;;7.60;2.73;;;7.70;99.70;;;;;;5053468;28;20443;-65
2022/02/08 10:47:45;;;;;;;7.93;2.50;;;7.60;99.70;;;;;;5053498;28;20535;-62
2022/02/08 10:50:12;;;;;;;5.60;1.93;;;7.60;99.70;;;;;;5053356;28;20492;-63
2022/02/08 10:52:42;;;;;;;5.83;2.00;;;7.60;99.70;;;;;;5053091;28;20482;-62
2022/02/08 10:55:19;;;;;;;8.00;2.10;;;7.60;99.70;;;;;;5053267;28;20873;-64
2022/02/08 10:57:53;;;;;;;8.20;2.30;;;7.60;99.70;;;;;;5053318;28;20478;-63
2022/02/08 11:00:27;;;;;;;4.70;2.00;;;7.50;99.70;;;;;;5053370;28;20552;-64
2022/02/08 11:02:56;;;;;;;11.10;2.63;;;7.50;99.70;;;;;;5053297;28;20443;-64
2022/02/08 11:05:28;;;;;;;5.27;2.00;;;7.50;99.70;;;;;;5052835;28;20915;-63
2022/02/08 11:16:24;;;;;;;8.00;1.93;;;7.90;99.70;;;;;;5032458;28;20440;-64
2022/02/08 11:19:11;;;;;;;9.10;2.30;;;8.10;99.70;;;;;;5033022;28;20886;-64
2022/02/08 11:21:51;;;;;;;7.73;2.10;;;7.80;99.70;;;;;;5032554;28;20449;-64
2022/02/08 11:24:26;;;;;;;6.00;2.03;;;7.80;99.70;;;;;;5032938;28;20511;-64
2022/02/08 11:26:59;;;;;;;7.20;2.10;;;7.80;99.70;;;;;;5048493;28;20542;-63
2022/02/08 11:29:30;;;;;;;6.97;2.53;;;8.00;99.70;;;;;;5049003;28;20479;-64
2022/02/08 11:32:07;;;;;;;9.30;2.30;;;8.20;99.70;;;;;;5049232;28;20448;-65
2022/02/08 11:43:38;;;;;;;6.03;2.10;;;8.40;99.70;;;;;;5052594;28;20514;-64
2022/02/08 11:46:26;;;;;;;7.87;2.20;;;8.30;99.70;;;;;;5052396;28;20435;-64
2022/02/08 11:51:53;;;;;;;6.10;2.23;;;8.70;99.70;;;;;;5029609;28;20433;-65
2022/02/08 11:54:31;;;;;;;5.90;2.13;;;8.70;99.70;;;;;;5032669;28;20463;-66
2022/02/08 12:00:16;;;;;;;7.03;1.97;;;8.80;99.70;;;;;;5032206;28;20456;-64
2022/02/08 12:05:38;;;;;;;10.63;2.73;;;9.10;99.70;;;;;;5031332;28;20540;-63
2022/02/08 12:08:13;;;;;;;8.43;2.20;;;9.10;99.70;;;;;;5036472;28;20443;-64
2022/02/08 12:10:44;;;;;;;9.63;2.37;;;9.30;99.70;;;;;;5051698;28;20939;-64
2022/02/08 12:33:15;;;;;;;6.27;1.83;;;9.00;99.70;;;;;;5052034;28;20412;-63
2022/02/08 12:55:32;;;;;;;4.20;1.90;;;9.50;99.70;;;;;;5051278;28;20418;-64
2022/02/08 13:00:53;;;;;;;5.83;1.90;;;9.60;99.70;;;;;;5044073;28;20450;-65
2022/02/08 13:03:43;;;;;;;6.10;1.80;;;9.60;99.70;;;;;;5051332;28;20811;-65
2022/02/08 13:14:18;;;;;;;6.57;1.80;;;9.40;99.70;;;;;;5049446;28;20440;-64
2022/02/08 14:01:49;;;;;;;10.90;1.90;;;9.40;99.70;;;;;;5034744;28;20858;-61
2022/02/08 14:07:22;;;;;;;3.37;1.87;;;9.20;99.70;;;;;;5034717;28;20427;-64
2022/02/08 14:09:58;;;;;;;5.60;2.00;;;9.20;99.70;;;;;;5034369;28;20495;-64
2022/02/08 14:18:39;;;;;;;4.43;1.60;;;9.20;99.70;;;;;;5009955;28;20474;-64
2022/02/08 14:21:11;;;;;;;5.60;1.70;;;9.10;99.70;;;;;;5034372;28;20502;-64
2022/02/08 14:35:09;;;;;;;3.60;1.60;;;9.10;99.70;;;;;;5026797;28;20455;-65
2022/02/08 15:07:59;;;;;;;8.83;1.60;;;8.90;99.70;;;;;;5053372;28;20427;-64
2022/02/08 15:10:34;;;;;;;4.57;1.60;;;8.80;99.70;;;;;;5053331;28;20487;-65
2022/02/08 15:13:02;;;;;;;6.80;2.07;;;8.80;99.70;;;;;;5053328;28;20534;-64
2022/02/08 15:15:34;;;;;;;3.73;1.60;;;8.80;99.70;;;;;;5046470;28;20541;-64
2022/02/08 15:18:01;;;;;;;3.83;1.80;;;8.80;99.70;;;;;;5047020;28;20459;-65
2022/02/08 15:20:28;;;;;;;3.47;1.67;;;8.80;99.70;;;;;;5051706;28;20463;-65
2022/02/08 15:23:00;;;;;;;5.70;1.70;;;8.80;99.70;;;;;;5051487;28;20858;-66
2022/02/08 15:25:29;;;;;;;4.57;1.70;;;8.70;99.70;;;;;;5051739;28;20444;-65
2022/02/08 15:28:01;;;;;;;3.80;1.57;;;8.70;99.70;;;;;;5051398;28;20475;-64
2022/02/08 15:30:28;;;;;;;4.93;1.70;;;8.70;99.70;;;;;;5051545;28;20484;-64
2022/02/08 15:32:55;;;;;;;7.13;1.80;;;8.70;99.70;;;;;;5051416;28;20455;-64
2022/02/08 15:35:21;;;;;;;13.27;2.03;;;8.60;99.70;;;;;;5051295;28;20460;-65
2022/02/08 15:37:50;;;;;;;5.80;1.80;;;8.60;99.70;;;;;;5049028;28;20460;-64
2022/02/08 15:40:20;;;;;;;4.30;1.53;;;8.60;99.70;;;;;;5045350;28;20843;-64
2022/02/08 15:42:48;;;;;;;4.40;1.60;;;8.60;99.70;;;;;;5049402;28;20444;-65
2022/02/08 15:45:21;;;;;;;4.73;1.67;;;8.60;99.70;;;;;;5048555;28;20435;-64
2022/02/08 15:47:50;;;;;;;4.77;1.70;;;8.60;99.70;;;;;;5053708;28;20785;-65
2022/02/08 15:50:23;;;;;;;4.30;1.60;;;8.50;99.70;;;;;;5048857;28;20487;-64
2022/02/08 15:53:25;;;;;;;4.47;1.43;;;8.50;99.70;;;;;;5049794;28;20440;-64
2022/02/08 15:56:17;;;;;;;5.27;1.63;;;8.50;99.70;;;;;;5048215;28;20451;-66
2022/02/08 16:05:05;;;;;;;5.03;1.60;;;8.40;99.70;;;;;;5051353;28;20454;-66
2022/02/08 16:07:02;;;;;;;4.87;1.80;;;8.40;99.70;;;;;;5031905;28;20424;-64
2022/02/08 16:09:35;;;;;;;8.87;1.80;;;8.40;99.70;;;;;;5041474;28;20460;-64
2022/02/08 16:15:08;;;;;;;8.30;2.20;;;8.40;99.70;;;;;;5045760;28;20440;-63
2022/02/08 16:17:44;;;;;;;7.80;2.57;;;8.40;99.70;;;;;;5048462;28;20487;-63
2022/02/08 16:20:19;;;;;;;10.07;2.17;;;8.30;99.70;;;;;;5043843;28;20496;-63
2022/02/08 16:25:52;;;;;;;5.47;1.83;;;8.40;99.70;;;;;;5006124;28;20513;-64
2022/02/08 16:28:40;;;;;;;3.27;1.67;;;8.30;99.70;;;;;;5032866;28;20809;-64
2022/02/08 16:53:12;;;;;;;4.17;1.80;;;8.20;99.70;;;;;;4992682;28;20953;-62
2022/02/08 16:58:38;;;;;;;6.20;2.00;;;8.20;99.70;;;;;;5039946;28;21044;-64
2022/02/08 17:01:13;;;;;;;3.67;1.60;;;8.20;99.70;;;;;;5050646;28;20854;-64
2022/02/08 17:03:45;;;;;;;7.03;1.80;;;8.10;99.70;;;;;;5071330;28;20932;-64
2022/02/08 17:06:12;;;;;;;3.33;1.60;;;8.20;99.70;;;;;;5070608;28;20435;-64
2022/02/08 17:08:39;;;;;;;5.60;1.80;;;8.20;99.70;;;;;;5061099;28;20859;-65
2022/02/08 17:11:06;;;;;;;4.30;2.00;;;8.20;99.70;;;;;;5048837;28;21036;-61
2022/02/08 17:16:22;;;;;;;6.60;2.07;;;8.00;99.70;;;;;;5028853;28;20464;-64
2022/02/08 17:19:08;;;;;;;3.90;1.87;;;8.00;99.70;;;;;;5040501;28;20552;-64
2022/02/08 17:46:37;;;;;;;4.47;2.10;;;7.70;99.70;;;;;;5050539;28;20514;-63
2022/02/08 17:49:05;;;;;;;5.00;1.93;;;7.70;99.70;;;;;;5046795;28;20878;-64
2022/02/08 17:51:31;;;;;;;4.77;2.13;;;7.70;99.70;;;;;;5044795;28;20494;-65
2022/02/08 17:53:58;;;;;;;8.90;2.10;;;7.70;99.70;;;;;;5046280;28;20455;-65
2022/02/08 17:56:25;;;;;;;6.40;2.10;;;7.70;99.70;;;;;;5049170;28;20705;-64
2022/02/08 17:58:52;;;;;;;5.20;2.33;;;7.80;99.70;;;;;;5043328;28;20456;-65
2022/02/08 18:01:19;;;;;;;5.27;2.20;;;7.70;99.70;;;;;;5041121;28;20517;-65
2022/02/08 18:03:45;;;;;;;9.80;3.10;;;7.80;99.70;;;;;;5047576;28;20456;-65
2022/02/08 18:06:13;;;;;;;6.80;2.57;;;7.80;99.70;;;;;;5049638;28;20460;-64
2022/02/08 18:08:41;;;;;;;5.50;2.50;;;7.90;99.70;;;;;;5055322;28;20809;-63
2022/02/08 18:11:09;;;;;;;7.57;2.60;;;7.90;99.70;;;;;;5048196;28;20587;-66
2022/02/08 18:13:39;;;;;;;5.80;2.53;;;7.90;99.70;;;;;;5048988;28;20451;-62
2022/02/08 18:16:07;;;;;;;5.63;2.30;;;7.90;99.70;;;;;;5049918;28;20832;-64
2022/02/08 18:18:39;;;;;;;6.30;2.20;;;7.90;99.70;;;;;;5059890;28;20478;-62
2022/02/08 18:21:12;;;;;;;6.50;2.93;;;7.80;99.70;;;;;;5054668;28;20487;-64
2022/02/08 18:24:03;;;;;;;7.00;2.30;;;7.90;99.70;;;;;;5042729;28;20459;-64
2022/02/08 18:57:05;;;;;;;8.20;2.33;;;8.00;99.70;;;;;;5049040;28;20512;-62
2022/02/08 19:07:49;;;;;;;4.53;2.00;;;8.00;99.70;;;;;;5050766;28;20455;-64
2022/02/08 19:13:49;;;;;;;8.90;2.77;;;8.00;99.70;;;;;;5053105;28;20949;-63
2022/02/08 19:16:32;;;;;;;4.03;2.10;;;8.00;99.70;;;;;;5052035;28;20949;-65
2022/02/08 19:21:45;;;;;;;8.00;2.90;;;7.90;99.70;;;;;;5022743;28;20455;-64
2022/02/08 19:24:18;;;;;;;5.67;2.40;;;7.90;99.70;;;;;;5051396;28;20440;-64